createdAt,value
2023-04-21T00:00:32.868Z,0.00
2023-04-21T00:01:32.864Z,0.00
2023-04-21T00:02:33.985Z,0.00
2023-04-21T00:03:33.101Z,0.00
2023-04-21T00:04:33.001Z,0.00
2023-04-21T00:05:32.975Z,0.00
2023-04-21T00:06:32.804Z,0.00
2023-04-21T00:07:32.790Z,0.00
2023-04-21T00:08:32.778Z,0.00
2023-04-21T00:09:32.786Z,0.00
2023-04-21T00:10:32.753Z,0.00
2023-04-21T00:11:32.740Z,0.00
2023-04-21T00:12:32.729Z,0.00
2023-04-21T00:13:32.722Z,0.00
2023-04-21T00:14:32.723Z,0.00
2023-04-21T00:15:32.706Z,0.00
2023-04-21T00:16:32.819Z,0.00
2023-04-21T00:17:32.711Z,0.00
2023-04-21T00:18:32.669Z,0.00
2023-04-21T00:19:32.677Z,0.00
2023-04-21T00:20:32.694Z,0.00
2023-04-21T00:21:32.628Z,0.00
2023-04-21T00:22:32.621Z,0.00
2023-04-21T00:23:32.604Z,0.00
2023-04-21T00:24:32.605Z,0.00
2023-04-21T00:25:32.598Z,0.00
2023-04-21T00:26:32.609Z,0.00
2023-04-21T00:27:32.564Z,0.00
2023-04-21T00:28:32.562Z,0.00
2023-04-21T00:29:32.560Z,0.00
2023-04-21T00:30:33.368Z,0.00
2023-04-21T00:31:32.562Z,0.00
2023-04-21T00:32:32.560Z,0.00
2023-04-21T00:33:32.510Z,0.00
2023-04-21T00:34:32.503Z,0.00
2023-04-21T00:35:32.508Z,0.00
2023-04-21T00:36:32.480Z,0.00
2023-04-21T00:37:32.483Z,0.00
2023-04-21T00:38:32.447Z,0.00
2023-04-21T00:39:32.438Z,0.00
2023-04-21T00:40:32.446Z,0.00
2023-04-21T00:41:32.426Z,0.00
2023-04-21T00:42:32.398Z,0.00
2023-04-21T00:43:32.396Z,0.00
2023-04-21T00:44:32.376Z,0.00
2023-04-21T00:45:32.380Z,0.00
2023-04-21T00:46:32.367Z,0.00
2023-04-21T00:47:32.352Z,0.00
2023-04-21T00:48:32.370Z,0.00
2023-04-21T00:49:32.322Z,0.00
2023-04-21T00:50:32.329Z,0.00
2023-04-21T00:51:32.325Z,0.00
2023-04-21T00:52:32.291Z,0.00
2023-04-21T00:53:32.272Z,0.00
2023-04-21T00:54:32.262Z,0.00
2023-04-21T00:55:32.260Z,0.00
2023-04-21T00:56:32.251Z,0.00
2023-04-21T00:57:32.232Z,0.00
2023-04-21T00:58:32.216Z,0.00
2023-04-21T00:59:32.212Z,0.00
2023-04-21T01:00:32.277Z,0.00
2023-04-21T01:01:32.196Z,0.00
2023-04-21T01:02:32.249Z,0.00
2023-04-21T01:03:32.402Z,0.00
2023-04-21T01:04:32.150Z,0.00
2023-04-21T01:05:32.161Z,0.00
2023-04-21T01:06:32.135Z,0.00
2023-04-21T01:07:32.133Z,0.00
2023-04-21T01:08:32.113Z,0.00
2023-04-21T01:09:32.113Z,0.00
2023-04-21T01:10:32.109Z,0.00
2023-04-21T01:11:32.092Z,0.00
2023-04-21T01:12:32.074Z,0.00
2023-04-21T01:13:32.053Z,0.00
2023-04-21T01:14:32.052Z,0.00
2023-04-21T01:15:32.050Z,0.00
2023-04-21T01:16:32.070Z,0.00
2023-04-21T01:17:32.037Z,0.00
2023-04-21T01:18:32.002Z,0.00
2023-04-21T01:19:31.987Z,0.00
2023-04-21T01:20:31.993Z,0.00
2023-04-21T01:21:31.983Z,0.00
2023-04-21T01:22:31.960Z,0.00
2023-04-21T01:23:31.946Z,0.00
2023-04-21T01:24:31.933Z,0.00
2023-04-21T01:25:31.934Z,0.00
2023-04-21T01:26:31.911Z,0.00
2023-04-21T01:27:31.904Z,0.00
2023-04-21T01:28:31.885Z,0.00
2023-04-21T01:29:31.873Z,0.00
2023-04-21T01:30:31.891Z,0.00
2023-04-21T01:31:31.891Z,0.00
2023-04-21T01:32:32.044Z,0.00
2023-04-21T01:33:31.837Z,0.00
2023-04-21T01:34:31.823Z,0.00
2023-04-21T01:35:31.831Z,0.00
2023-04-21T01:36:31.792Z,0.00
2023-04-21T01:37:31.804Z,0.00
2023-04-21T01:38:31.778Z,0.00
2023-04-21T01:39:31.788Z,0.00
2023-04-21T01:40:31.781Z,0.00
2023-04-21T01:41:31.746Z,0.00
2023-04-21T01:42:31.732Z,0.00
2023-04-21T01:43:31.732Z,0.00
2023-04-21T01:44:31.713Z,0.00
2023-04-21T01:45:31.731Z,0.00
2023-04-21T01:46:31.732Z,0.00
2023-04-21T01:47:31.701Z,0.00
2023-04-21T01:48:31.683Z,0.00
2023-04-21T01:49:31.661Z,0.00
2023-04-21T01:50:31.663Z,0.00
2023-04-21T01:51:31.634Z,0.00
2023-04-21T01:52:31.621Z,0.00
2023-04-21T01:53:31.620Z,0.00
2023-04-21T01:54:31.603Z,0.00
2023-04-21T01:55:31.616Z,0.00
2023-04-21T01:56:31.627Z,0.00
2023-04-21T01:57:31.572Z,0.00
2023-04-21T01:58:31.553Z,0.00
2023-04-21T01:59:31.549Z,0.00
2023-04-21T02:00:31.552Z,0.00
2023-04-21T02:01:31.569Z,0.00
2023-04-21T02:02:31.667Z,0.00
2023-04-21T02:03:31.723Z,0.00
2023-04-21T02:04:31.632Z,0.00
2023-04-21T02:05:31.501Z,0.00
2023-04-21T02:06:31.471Z,0.00
2023-04-21T02:07:31.464Z,0.00
2023-04-21T02:08:31.447Z,0.00
2023-04-21T02:09:31.448Z,0.00
2023-04-21T02:10:31.445Z,0.00
2023-04-21T02:11:31.418Z,0.00
2023-04-21T02:12:31.400Z,0.00
2023-04-21T02:13:31.393Z,0.00
2023-04-21T02:14:31.389Z,0.00
2023-04-21T02:15:31.408Z,0.00
2023-04-21T02:16:31.451Z,0.00
2023-04-21T02:17:31.382Z,0.00
2023-04-21T02:18:31.336Z,0.00
2023-04-21T02:19:31.335Z,0.00
2023-04-21T02:20:31.335Z,0.00
2023-04-21T02:21:31.303Z,0.00
2023-04-21T02:22:31.302Z,0.00
2023-04-21T02:23:31.290Z,0.00
2023-04-21T02:24:31.270Z,0.00
2023-04-21T02:25:31.275Z,0.00
2023-04-21T02:26:31.252Z,0.00
2023-04-21T02:27:31.237Z,0.00
2023-04-21T02:28:31.225Z,0.00
2023-04-21T02:29:31.215Z,0.00
2023-04-21T02:30:31.214Z,0.00
2023-04-21T02:31:31.226Z,0.00
2023-04-21T02:32:31.276Z,0.00
2023-04-21T02:33:31.236Z,0.00
2023-04-21T02:34:31.151Z,0.00
2023-04-21T02:35:31.157Z,0.00
2023-04-21T02:36:31.164Z,0.00
2023-04-21T02:37:31.120Z,0.00
2023-04-21T02:38:31.113Z,0.00
2023-04-21T02:39:31.105Z,0.00
2023-04-21T02:40:31.108Z,0.00
2023-04-21T02:41:31.070Z,0.00
2023-04-21T02:42:31.066Z,0.00
2023-04-21T02:43:31.051Z,0.00
2023-04-21T02:44:31.060Z,0.00
2023-04-21T02:45:31.054Z,0.00
2023-04-21T02:46:31.068Z,0.00
2023-04-21T02:47:31.039Z,0.00
2023-04-21T02:48:31.062Z,0.00
2023-04-21T02:49:30.994Z,0.00
2023-04-21T02:50:30.998Z,0.00
2023-04-21T02:51:30.973Z,0.00
2023-04-21T02:52:30.956Z,0.00
2023-04-21T02:53:30.956Z,0.00
2023-04-21T02:54:30.931Z,0.00
2023-04-21T02:55:30.941Z,0.00
2023-04-21T02:56:30.910Z,0.00
2023-04-21T02:57:30.891Z,0.00
2023-04-21T02:58:30.879Z,0.00
2023-04-21T02:59:30.883Z,0.00
2023-04-21T03:00:30.909Z,0.00
2023-04-21T03:01:30.858Z,0.00
2023-04-21T03:02:30.935Z,0.00
2023-04-21T03:03:30.969Z,0.00
2023-04-21T03:04:30.866Z,0.00
2023-04-21T03:05:30.819Z,0.00
2023-04-21T03:06:30.807Z,0.00
2023-04-21T03:07:30.787Z,0.00
2023-04-21T03:08:30.774Z,0.00
2023-04-21T03:09:30.780Z,0.00
2023-04-21T03:10:30.767Z,0.00
2023-04-21T03:11:30.760Z,0.00
2023-04-21T03:12:30.729Z,0.00
2023-04-21T03:13:30.723Z,0.00
2023-04-21T03:14:30.705Z,0.00
2023-04-21T03:15:30.709Z,0.00
2023-04-21T03:16:30.713Z,0.00
2023-04-21T03:17:33.013Z,0.00
2023-04-21T03:18:30.655Z,0.00
2023-04-21T03:19:30.652Z,0.00
2023-04-21T03:20:30.668Z,0.00
2023-04-21T03:21:30.631Z,0.00
2023-04-21T03:22:30.615Z,0.00
2023-04-21T03:23:30.623Z,0.00
2023-04-21T03:24:30.596Z,0.00
2023-04-21T03:25:30.592Z,0.00
2023-04-21T03:26:30.602Z,0.00
2023-04-21T03:27:30.568Z,0.00
2023-04-21T03:28:30.562Z,0.00
2023-04-21T03:29:30.545Z,0.00
2023-04-21T03:30:30.530Z,0.00
2023-04-21T03:31:30.547Z,0.00
2023-04-21T03:32:30.530Z,0.00
2023-04-21T03:33:30.520Z,0.00
2023-04-21T03:34:30.488Z,0.00
2023-04-21T03:35:30.474Z,0.00
2023-04-21T03:36:30.469Z,0.00
2023-04-21T03:37:30.488Z,0.00
2023-04-21T03:38:30.441Z,0.00
2023-04-21T03:39:30.430Z,4.00
2023-04-21T03:40:30.426Z,4.00
2023-04-21T03:41:30.417Z,0.00
2023-04-21T03:42:30.403Z,4.00
2023-04-21T03:43:30.403Z,4.00
2023-04-21T03:44:30.378Z,4.00
2023-04-21T03:45:30.373Z,4.00
2023-04-21T03:46:30.382Z,4.00
2023-04-21T03:47:30.393Z,4.00
2023-04-21T03:48:30.380Z,8.00
2023-04-21T03:49:30.328Z,8.00
2023-04-21T03:50:30.315Z,8.00
2023-04-21T03:51:30.295Z,12.00
2023-04-21T03:52:30.283Z,12.00
2023-04-21T03:53:30.289Z,12.00
2023-04-21T03:54:30.281Z,20.00
2023-04-21T03:55:30.245Z,20.00
2023-04-21T03:56:30.244Z,20.00
2023-04-21T03:57:30.233Z,24.00
2023-04-21T03:58:30.221Z,28.00
2023-04-21T03:59:30.210Z,36.00
2023-04-21T04:00:30.214Z,36.00
2023-04-21T04:01:30.189Z,44.00
2023-04-21T04:02:30.263Z,48.00
2023-04-21T04:03:30.327Z,56.00
2023-04-21T04:04:30.233Z,60.00
2023-04-21T04:05:30.187Z,68.00
2023-04-21T04:06:30.139Z,72.00
2023-04-21T04:07:30.123Z,84.00
2023-04-21T04:08:30.107Z,92.00
2023-04-21T04:09:30.093Z,100.00
2023-04-21T04:10:30.094Z,108.00
2023-04-21T04:11:30.088Z,116.00
2023-04-21T04:12:30.064Z,128.00
2023-04-21T04:13:30.055Z,140.00
2023-04-21T04:14:30.038Z,148.00
2023-04-21T04:15:30.036Z,160.00
2023-04-21T04:16:30.157Z,172.00
2023-04-21T04:17:30.033Z,184.00
2023-04-21T04:18:29.996Z,196.00
2023-04-21T04:19:29.985Z,208.00
2023-04-21T04:20:29.976Z,224.00
2023-04-21T04:21:29.976Z,232.00
2023-04-21T04:22:29.948Z,248.00
2023-04-21T04:23:29.944Z,260.00
2023-04-21T04:24:29.934Z,276.00
2023-04-21T04:25:29.917Z,288.00
2023-04-21T04:26:29.932Z,308.00
2023-04-21T04:27:29.902Z,320.00
2023-04-21T04:28:29.885Z,336.00
2023-04-21T04:29:29.872Z,352.00
2023-04-21T04:30:29.862Z,368.00
2023-04-21T04:31:29.906Z,384.00
2023-04-21T04:32:29.870Z,400.00
2023-04-21T04:33:29.835Z,416.00
2023-04-21T04:34:29.823Z,436.00
2023-04-21T04:35:29.811Z,448.00
2023-04-21T04:36:29.819Z,468.00
2023-04-21T04:37:29.790Z,488.00
2023-04-21T04:38:29.772Z,504.00
2023-04-21T04:39:29.801Z,520.00
2023-04-21T04:40:29.751Z,540.00
2023-04-21T04:41:29.752Z,556.00
2023-04-21T04:42:29.729Z,580.00
2023-04-21T04:43:29.716Z,600.00
2023-04-21T04:44:29.694Z,616.00
2023-04-21T04:45:29.692Z,636.00
2023-04-21T04:46:29.713Z,652.00
2023-04-21T04:47:29.731Z,672.00
2023-04-21T04:48:29.704Z,688.00
2023-04-21T04:49:29.647Z,712.00
2023-04-21T04:50:29.636Z,732.00
2023-04-21T04:51:29.660Z,748.00
2023-04-21T04:52:29.618Z,768.00
2023-04-21T04:53:29.604Z,788.00
2023-04-21T04:54:29.595Z,808.00
2023-04-21T04:55:29.593Z,824.00
2023-04-21T04:56:29.592Z,844.00
2023-04-21T04:57:29.575Z,860.00
2023-04-21T04:58:29.552Z,880.00
2023-04-21T04:59:30.279Z,896.00
2023-04-21T05:00:29.540Z,912.00
2023-04-21T05:01:29.592Z,928.00
2023-04-21T05:02:29.630Z,940.00
2023-04-21T05:03:29.714Z,960.00
2023-04-21T05:04:29.663Z,976.00
2023-04-21T05:05:29.491Z,988.00
2023-04-21T05:06:29.468Z,1008.00
2023-04-21T05:07:29.458Z,1024.00
2023-04-21T05:08:29.454Z,1040.00
2023-04-21T05:09:29.451Z,1056.00
2023-04-21T05:10:29.437Z,1072.00
2023-04-21T05:11:29.425Z,1088.00
2023-04-21T05:12:29.396Z,1096.00
2023-04-21T05:13:29.386Z,1112.00
2023-04-21T05:14:29.381Z,1128.00
2023-04-21T05:15:29.360Z,1144.00
2023-04-21T05:16:29.390Z,1156.00
2023-04-21T05:17:29.365Z,1172.00
2023-04-21T05:18:29.329Z,1184.00
2023-04-21T05:19:29.584Z,1196.00
2023-04-21T05:20:29.312Z,1212.00
2023-04-21T05:21:29.313Z,1224.00
2023-04-21T05:22:29.283Z,1240.00
2023-04-21T05:23:29.269Z,1248.00
2023-04-21T05:24:29.268Z,1256.00
2023-04-21T05:25:29.253Z,1264.00
2023-04-21T05:26:29.280Z,1272.00
2023-04-21T05:27:29.225Z,1280.00
2023-04-21T05:28:29.219Z,1292.00
2023-04-21T05:29:29.203Z,1300.00
2023-04-21T05:30:29.191Z,1308.00
2023-04-21T05:31:29.209Z,1316.00
2023-04-21T05:33:24.878Z,1332.00
2023-04-21T05:34:25.861Z,1340.00
2023-04-21T05:35:25.859Z,1352.00
2023-04-21T05:36:25.885Z,1368.00
2023-04-21T05:37:25.858Z,1384.00
2023-04-21T05:38:25.828Z,1404.00
2023-04-21T05:39:25.836Z,1420.00
2023-04-21T05:40:25.818Z,1436.00
2023-04-21T05:41:25.821Z,1460.00
2023-04-21T05:42:25.796Z,1476.00
2023-04-21T05:43:25.781Z,1500.00
2023-04-21T05:44:25.770Z,1540.00
2023-04-21T05:45:25.745Z,1572.00
2023-04-21T05:46:25.787Z,1596.00
2023-04-21T05:47:25.791Z,1612.00
2023-04-21T05:48:25.715Z,1616.00
2023-04-21T05:49:25.725Z,1604.00
2023-04-21T05:50:25.736Z,1612.00
2023-04-21T05:51:25.753Z,1628.00
2023-04-21T05:52:25.705Z,1644.00
2023-04-21T05:53:25.737Z,1652.00
2023-04-21T05:54:25.681Z,1660.00
2023-04-21T05:55:25.677Z,1672.00
2023-04-21T05:56:25.664Z,1676.00
2023-04-21T05:57:25.651Z,1688.00
2023-04-21T05:58:25.610Z,1712.00
2023-04-21T05:59:25.629Z,1732.00
2023-04-21T06:00:25.651Z,1740.00
2023-04-21T06:01:25.586Z,1744.00
2023-04-21T06:02:25.767Z,1740.00
2023-04-21T06:03:25.759Z,1728.00
2023-04-21T06:04:26.033Z,1720.00
2023-04-21T06:05:25.598Z,1716.00
2023-04-21T06:06:25.552Z,1716.00
2023-04-21T06:07:25.524Z,1728.00
2023-04-21T06:08:25.512Z,1744.00
2023-04-21T06:09:25.477Z,1756.00
2023-04-21T06:10:25.512Z,1768.00
2023-04-21T06:11:25.488Z,1776.00
2023-04-21T06:12:25.481Z,1796.00
2023-04-21T06:13:25.476Z,1780.00
2023-04-21T06:14:25.501Z,1768.00
2023-04-21T06:15:25.460Z,1740.00
2023-04-21T06:16:25.468Z,1744.00
2023-04-21T06:17:25.496Z,1768.00
2023-04-21T06:18:25.390Z,1788.00
2023-04-21T06:19:25.399Z,1812.00
2023-04-21T06:20:25.439Z,1856.00
2023-04-21T06:21:25.442Z,1900.00
2023-04-21T06:22:25.373Z,1940.00
2023-04-21T06:23:25.348Z,1956.00
2023-04-21T06:24:25.735Z,1972.00
2023-04-21T06:25:25.353Z,1976.00
2023-04-21T06:26:25.314Z,1976.00
2023-04-21T06:27:25.322Z,1988.00
2023-04-21T06:28:25.267Z,2024.00
2023-04-21T06:29:25.271Z,2076.00
2023-04-21T06:30:25.246Z,2156.00
2023-04-21T06:31:25.279Z,2240.00
2023-04-21T06:32:25.258Z,2316.00
2023-04-21T06:33:25.240Z,2380.00
2023-04-21T06:34:25.197Z,2420.00
2023-04-21T06:35:25.256Z,2440.00
2023-04-21T06:36:25.233Z,2456.00
2023-04-21T06:37:25.217Z,2460.00
2023-04-21T06:38:25.245Z,2480.00
2023-04-21T06:39:25.141Z,2496.00
2023-04-21T06:40:25.153Z,2512.00
2023-04-21T06:41:25.154Z,2536.00
2023-04-21T06:42:25.151Z,2568.00
2023-04-21T06:43:25.128Z,2596.00
2023-04-21T06:44:25.132Z,2604.00
2023-04-21T06:45:25.101Z,2596.00
2023-04-21T06:46:25.172Z,2572.00
2023-04-21T06:47:25.179Z,2560.00
2023-04-21T06:48:25.067Z,2516.00
2023-04-21T06:49:25.083Z,2488.00
2023-04-21T06:50:25.029Z,2472.00
2023-04-21T06:51:25.058Z,2460.00
2023-04-21T06:52:25.011Z,2464.00
2023-04-21T06:53:25.027Z,2468.00
2023-04-21T06:54:25.026Z,2472.00
2023-04-21T06:55:24.960Z,2468.00
2023-04-21T06:56:24.987Z,2492.00
2023-04-21T06:57:24.959Z,2488.00
2023-04-21T06:58:24.937Z,2544.00
2023-04-21T06:59:24.960Z,2612.00
2023-04-21T07:00:24.927Z,2688.00
2023-04-21T07:01:25.025Z,2764.00
2023-04-21T07:02:25.021Z,2824.00
2023-04-21T07:03:25.063Z,2868.00
2023-04-21T07:04:24.961Z,2912.00
2023-04-21T07:05:24.874Z,2936.00
2023-04-21T07:06:24.868Z,2964.00
2023-04-21T07:07:24.837Z,2996.00
2023-04-21T07:08:24.821Z,3020.00
2023-04-21T07:09:24.856Z,3048.00
2023-04-21T07:10:24.809Z,3096.00
2023-04-21T07:11:24.835Z,3140.00
2023-04-21T07:12:24.786Z,3172.00
2023-04-21T07:13:24.789Z,3220.00
2023-04-21T07:14:24.790Z,3244.00
2023-04-21T07:15:24.768Z,3268.00
2023-04-21T07:16:24.799Z,3288.00
2023-04-21T07:17:24.754Z,3304.00
2023-04-21T07:18:24.725Z,3312.00
2023-04-21T07:19:24.737Z,3348.00
2023-04-21T07:20:24.705Z,3340.00
2023-04-21T07:21:24.705Z,3344.00
2023-04-21T07:22:24.703Z,3340.00
2023-04-21T07:23:24.671Z,3336.00
2023-04-21T07:24:24.653Z,3328.00
2023-04-21T07:25:24.647Z,3340.00
2023-04-21T07:26:24.640Z,3336.00
2023-04-21T07:27:24.726Z,3336.00
2023-04-21T07:28:24.620Z,3308.00
2023-04-21T07:29:24.632Z,3304.00
2023-04-21T07:30:24.585Z,3304.00
2023-04-21T07:31:24.647Z,3312.00
2023-04-21T07:32:24.668Z,3316.00
2023-04-21T07:33:24.582Z,3320.00
2023-04-21T07:34:24.539Z,3324.00
2023-04-21T07:35:24.552Z,3320.00
2023-04-21T07:36:24.520Z,3320.00
2023-04-21T07:37:24.921Z,3316.00
2023-04-21T07:38:24.517Z,3316.00
2023-04-21T07:39:24.500Z,3320.00
2023-04-21T07:40:24.615Z,3300.00
2023-04-21T07:41:24.494Z,3304.00
2023-04-21T07:42:24.444Z,3304.00
2023-04-21T07:43:24.475Z,3300.00
2023-04-21T07:44:24.492Z,3304.00
2023-04-21T07:45:24.456Z,3300.00
2023-04-21T07:46:24.443Z,3272.00
2023-04-21T07:47:24.543Z,3284.00
2023-04-21T07:48:24.387Z,3268.00
2023-04-21T07:49:24.378Z,3272.00
2023-04-21T07:50:24.409Z,3256.00
2023-04-21T07:51:24.336Z,3252.00
2023-04-21T07:52:24.378Z,3256.00
2023-04-21T07:53:24.336Z,3260.00
2023-04-21T07:54:24.313Z,3268.00
2023-04-21T07:55:24.325Z,3252.00
2023-04-21T07:56:24.287Z,3212.00
2023-04-21T07:57:24.274Z,3212.00
2023-04-21T07:58:24.301Z,3228.00
2023-04-21T07:59:24.272Z,3244.00
2023-04-21T08:00:24.276Z,3288.00
2023-04-21T08:01:24.245Z,3336.00
2023-04-21T08:02:24.354Z,3376.00
2023-04-21T08:03:24.689Z,3428.00
2023-04-21T08:04:24.581Z,3496.00
2023-04-21T08:05:25.310Z,3536.00
2023-04-21T08:06:24.217Z,3588.00
2023-04-21T08:07:24.177Z,3632.00
2023-04-21T08:08:24.150Z,3684.00
2023-04-21T08:09:24.148Z,3716.00
2023-04-21T08:10:24.182Z,3752.00
2023-04-21T08:11:45.144Z,3768.00
2023-04-21T08:12:45.399Z,3796.00
2023-04-21T08:13:45.131Z,3832.00
2023-04-21T08:14:45.091Z,3860.00
2023-04-21T08:15:24.102Z,3880.00
2023-04-21T08:16:24.122Z,3892.00
2023-04-21T08:17:24.122Z,3924.00
2023-04-21T08:18:24.118Z,3936.00
2023-04-21T08:19:24.062Z,3964.00
2023-04-21T08:20:24.047Z,3988.00
2023-04-21T08:21:24.033Z,4008.00
2023-04-21T08:22:24.747Z,4016.00
2023-04-21T08:23:24.036Z,4048.00
2023-04-21T08:24:24.042Z,4056.00
2023-04-21T08:25:23.969Z,4096.00
2023-04-21T08:26:23.946Z,4096.00
2023-04-21T08:27:23.959Z,4104.00
2023-04-21T08:28:24.068Z,4124.00
2023-04-21T08:29:23.935Z,4128.00
2023-04-21T08:30:23.927Z,4164.00
2023-04-21T08:31:23.987Z,4156.00
2023-04-21T08:32:23.877Z,4172.00
2023-04-21T08:33:23.885Z,4180.00
2023-04-21T08:34:26.566Z,4192.00
2023-04-21T08:35:23.913Z,4200.00
2023-04-21T08:36:29.487Z,4212.00
2023-04-21T08:37:23.839Z,4208.00
2023-04-21T08:38:23.819Z,4212.00
2023-04-21T08:39:23.805Z,4204.00
2023-04-21T08:40:23.842Z,4216.00
2023-04-21T08:41:23.780Z,4220.00
2023-04-21T08:42:23.779Z,4208.00
2023-04-21T08:43:23.770Z,4208.00
2023-04-21T08:44:23.762Z,4204.00
2023-04-21T08:45:23.927Z,4196.00
2023-04-21T08:46:23.839Z,4208.00
2023-04-21T08:47:23.739Z,4204.00
2023-04-21T08:48:23.731Z,4208.00
2023-04-21T08:49:23.706Z,4212.00
2023-04-21T08:50:23.692Z,4216.00
2023-04-21T08:51:23.750Z,4212.00
2023-04-21T08:52:23.665Z,4208.00
2023-04-21T08:53:23.655Z,4212.00
2023-04-21T08:54:23.654Z,4208.00
2023-04-21T08:55:23.623Z,4216.00
2023-04-21T08:56:23.651Z,4204.00
2023-04-21T08:57:23.624Z,4196.00
2023-04-21T08:58:23.609Z,4200.00
2023-04-21T08:59:23.618Z,4228.00
2023-04-21T09:00:23.594Z,4328.00
2023-04-21T09:01:23.640Z,4532.00
2023-04-21T09:02:23.624Z,4368.00
2023-04-21T09:03:26.087Z,4376.00
2023-04-21T09:04:23.734Z,4496.00
2023-04-21T09:05:23.711Z,4368.00
2023-04-21T09:06:23.615Z,4360.00
2023-04-21T09:07:23.490Z,4384.00
2023-04-21T09:08:23.494Z,4432.00
2023-04-21T09:09:23.484Z,4424.00
2023-04-21T09:10:23.480Z,4376.00
2023-04-21T09:11:23.521Z,4384.00
2023-04-21T09:12:23.446Z,4400.00
2023-04-21T09:13:23.434Z,4396.00
2023-04-21T09:14:23.430Z,4448.00
2023-04-21T09:15:23.441Z,4664.00
2023-04-21T09:16:23.483Z,4472.00
2023-04-21T09:17:23.437Z,4440.00
2023-04-21T09:18:23.432Z,4484.00
2023-04-21T09:19:23.367Z,4512.00
2023-04-21T09:20:23.356Z,4520.00
2023-04-21T09:21:23.369Z,4540.00
2023-04-21T09:22:23.356Z,4572.00
2023-04-21T09:23:23.322Z,4536.00
2023-04-21T09:24:23.321Z,4520.00
2023-04-21T09:25:23.317Z,4540.00
2023-04-21T09:26:23.449Z,4568.00
2023-04-21T09:27:23.276Z,4600.00
2023-04-21T09:28:23.263Z,4592.00
2023-04-21T09:29:23.266Z,4612.00
2023-04-21T09:30:23.256Z,4640.00
2023-04-21T09:31:23.316Z,4660.00
2023-04-21T09:32:23.290Z,4688.00
2023-04-21T09:33:29.504Z,4696.00
2023-04-21T09:34:23.218Z,4712.00
2023-04-21T09:35:23.202Z,4772.00
2023-04-21T09:36:23.211Z,4820.00
2023-04-21T09:37:23.185Z,4816.00
2023-04-21T09:38:23.179Z,4892.00
2023-04-21T09:39:40.042Z,4908.00
2023-04-21T09:40:23.133Z,4932.00
2023-04-21T09:41:23.131Z,4968.00
2023-04-21T09:42:23.113Z,4936.00
2023-04-21T09:43:23.108Z,4972.00
2023-04-21T09:44:23.743Z,4980.00
2023-04-21T09:45:39.075Z,5036.00
2023-04-21T09:46:23.130Z,5008.00
2023-04-21T09:47:23.091Z,5088.00
2023-04-21T09:48:23.060Z,5068.00
2023-04-21T09:49:23.064Z,5128.00
2023-04-21T09:50:51.199Z,5124.00
2023-04-21T09:51:36.888Z,5060.00
2023-04-21T09:52:23.021Z,5280.00
2023-04-21T09:53:23.000Z,5116.00
2023-04-21T09:55:22.974Z,5120.00
2023-04-21T09:56:22.994Z,5112.00
2023-04-21T09:57:22.946Z,5108.00
2023-04-21T09:58:22.928Z,5172.00
2023-04-21T09:59:23.750Z,5332.00
2023-04-21T10:00:22.898Z,5236.00
2023-04-21T10:01:22.959Z,5216.00
2023-04-21T10:02:23.137Z,5208.00
2023-04-21T10:03:22.976Z,5292.00
2023-04-21T10:04:23.364Z,5388.00
2023-04-21T10:05:22.919Z,5308.00
2023-04-21T10:06:22.899Z,5256.00
2023-04-21T10:07:22.838Z,5380.00
2023-04-21T10:08:22.826Z,5316.00
2023-04-21T10:09:22.815Z,5352.00
2023-04-21T10:10:22.803Z,5308.00
2023-04-21T10:11:22.799Z,5360.00
2023-04-21T10:12:22.783Z,5304.00
2023-04-21T10:13:22.774Z,5320.00
2023-04-21T10:14:22.927Z,5320.00
2023-04-21T10:15:22.916Z,5376.00
2023-04-21T10:16:22.806Z,5380.00
2023-04-21T10:17:22.736Z,5512.00
2023-04-21T10:18:22.707Z,5384.00
2023-04-21T10:19:22.699Z,5436.00
2023-04-21T10:20:22.683Z,5528.00
2023-04-21T10:21:22.695Z,6056.00
2023-04-21T10:22:22.674Z,5516.00
2023-04-21T10:23:22.663Z,5452.00
2023-04-21T10:24:22.678Z,5520.00
2023-04-21T10:25:22.646Z,5476.00
2023-04-21T10:26:22.649Z,5500.00
2023-04-21T10:27:22.623Z,5404.00
2023-04-21T10:28:22.623Z,5448.00
2023-04-21T10:29:22.606Z,5464.00
2023-04-21T10:30:22.684Z,5604.00
2023-04-21T10:31:22.628Z,5884.00
2023-04-21T10:32:22.592Z,5568.00
2023-04-21T10:33:22.561Z,5532.00
2023-04-21T10:34:22.860Z,5480.00
2023-04-21T10:35:22.546Z,5584.00
2023-04-21T10:36:22.536Z,5564.00
2023-04-21T10:37:22.500Z,5516.00
2023-04-21T10:38:22.498Z,5508.00
2023-04-21T10:39:22.488Z,5524.00
2023-04-21T10:40:32.974Z,5528.00
2023-04-21T10:41:22.495Z,5600.00
2023-04-21T10:42:22.447Z,5652.00
2023-04-21T10:43:22.439Z,5568.00
2023-04-21T10:44:22.547Z,5572.00
2023-04-21T10:45:22.424Z,5604.00
2023-04-21T10:46:22.497Z,5780.00
2023-04-21T10:47:22.441Z,5604.00
2023-04-21T10:48:22.384Z,5584.00
2023-04-21T10:49:22.360Z,5756.00
2023-04-21T10:50:22.356Z,5820.00
2023-04-21T10:51:22.373Z,5568.00
2023-04-21T10:52:22.323Z,5800.00
2023-04-21T10:53:22.321Z,5332.00
2023-04-21T10:54:22.420Z,5364.00
2023-04-21T10:55:22.404Z,5332.00
2023-04-21T10:56:22.374Z,5292.00
2023-04-21T10:57:22.272Z,5720.00
2023-04-21T10:58:22.261Z,5400.00
2023-04-21T10:59:22.259Z,5644.00
2023-04-21T11:00:22.234Z,5396.00
2023-04-21T11:01:22.309Z,5392.00
2023-04-21T11:02:22.474Z,5448.00
2023-04-21T11:03:22.412Z,5392.00
2023-04-21T11:04:23.184Z,5520.00
2023-04-21T11:05:22.182Z,5404.00
2023-04-21T11:06:22.195Z,5468.00
2023-04-21T11:07:22.161Z,5404.00
2023-04-21T11:08:22.184Z,5384.00
2023-04-21T11:09:22.135Z,5396.00
2023-04-21T11:10:22.133Z,5432.00
2023-04-21T11:11:22.129Z,5476.00
2023-04-21T11:12:22.106Z,5396.00
2023-04-21T11:13:22.096Z,5428.00
2023-04-21T11:14:22.157Z,5400.00
2023-04-21T11:15:22.076Z,5480.00
2023-04-21T11:16:22.132Z,5512.00
2023-04-21T11:17:22.054Z,5624.00
2023-04-21T11:18:22.030Z,5572.00
2023-04-21T11:19:22.040Z,5556.00
2023-04-21T11:20:22.014Z,5580.00
2023-04-21T11:21:22.140Z,5548.00
2023-04-21T11:22:22.020Z,5520.00
2023-04-21T11:23:21.983Z,5536.00
2023-04-21T11:24:22.075Z,5532.00
2023-04-21T11:25:21.980Z,5568.00
2023-04-21T11:26:21.958Z,5596.00
2023-04-21T11:27:21.934Z,5556.00
2023-04-21T11:28:21.923Z,5560.00
2023-04-21T11:29:21.921Z,5580.00
2023-04-21T11:30:21.905Z,5608.00
2023-04-21T11:31:21.942Z,5700.00
2023-04-21T11:32:21.888Z,5932.00
2023-04-21T11:33:29.234Z,5608.00
2023-04-21T11:34:22.091Z,5596.00
2023-04-21T11:35:21.846Z,5648.00
2023-04-21T11:36:21.843Z,5836.00
2023-04-21T11:37:21.852Z,5672.00
2023-04-21T11:38:21.874Z,5832.00
2023-04-21T11:39:22.328Z,5680.00
2023-04-21T11:40:21.782Z,5672.00
2023-04-21T11:41:21.807Z,5668.00
2023-04-21T11:42:21.766Z,5752.00
2023-04-21T11:43:21.761Z,5748.00
2023-04-21T11:44:21.738Z,5796.00
2023-04-21T11:45:22.794Z,5784.00
2023-04-21T11:46:21.762Z,5808.00
2023-04-21T11:47:21.778Z,5784.00
2023-04-21T11:48:21.705Z,5912.00
2023-04-21T11:49:21.694Z,5836.00
2023-04-21T11:50:21.686Z,6016.00
2023-04-21T11:51:22.482Z,5820.00
2023-04-21T11:52:21.691Z,5816.00
2023-04-21T11:53:21.651Z,5820.00
2023-04-21T11:54:21.642Z,5864.00
2023-04-21T11:55:21.640Z,5868.00
2023-04-21T11:56:21.631Z,5992.00
2023-04-21T11:57:21.637Z,5932.00
2023-04-21T11:58:21.622Z,5752.00
2023-04-21T11:59:23.191Z,5840.00
2023-04-21T12:00:21.587Z,5832.00
2023-04-21T12:01:21.589Z,5836.00
2023-04-21T12:02:23.092Z,5868.00
2023-04-21T12:03:22.370Z,5828.00
2023-04-21T12:04:21.600Z,5832.00
2023-04-21T12:05:21.587Z,5872.00
2023-04-21T12:06:21.563Z,5876.00
2023-04-21T12:07:21.513Z,5888.00
2023-04-21T12:08:21.479Z,5880.00
2023-04-21T12:09:21.530Z,5876.00
2023-04-21T12:10:21.523Z,5952.00
2023-04-21T12:11:21.460Z,5904.00
2023-04-21T12:12:21.458Z,6060.00
2023-04-21T12:13:21.420Z,5876.00
2023-04-21T12:14:21.425Z,6144.00
2023-04-21T12:15:21.502Z,6004.00
2023-04-21T12:16:21.502Z,6120.00
2023-04-21T12:17:21.411Z,6336.00
2023-04-21T12:18:21.394Z,6096.00
2023-04-21T12:19:21.370Z,6012.00
2023-04-21T12:20:21.366Z,6036.00
2023-04-21T12:21:21.338Z,6028.00
2023-04-21T12:22:21.342Z,6056.00
2023-04-21T12:23:21.316Z,6068.00
2023-04-21T12:24:21.313Z,6188.00
2023-04-21T12:25:21.301Z,6408.00
2023-04-21T12:26:21.298Z,6512.00
2023-04-21T12:27:21.310Z,6476.00
2023-04-21T12:28:21.322Z,6304.00
2023-04-21T12:29:21.254Z,6192.00
2023-04-21T12:30:21.298Z,6276.00
2023-04-21T12:31:21.280Z,6368.00